createdAt,value
2022-10-29T06:15:39.976Z,159.48
2022-10-29T06:25:40.050Z,171.49
2022-10-29T06:35:40.054Z,167.92
2022-10-29T06:45:39.908Z,135.00
2022-10-29T06:55:39.910Z,135.00
2022-10-29T07:05:39.871Z,97.86
2022-10-29T07:15:39.997Z,90.00
2022-10-29T07:25:39.935Z,106.86
2022-10-29T07:35:40.089Z,164.09
2022-10-29T07:45:39.966Z,176.30
2022-10-29T07:55:39.939Z,172.21
2022-10-29T08:05:42.577Z,160.69
2022-10-29T08:15:39.880Z,167.30
2022-10-29T08:25:40.021Z,175.97
2022-10-29T08:35:39.977Z,178.82
2022-10-29T08:45:40.006Z,179.74
2022-10-29T08:55:39.978Z,180.00
2022-10-29T09:05:39.991Z,180.00
2022-10-29T09:15:40.023Z,169.62
2022-10-29T09:25:40.033Z,178.93
2022-10-29T09:35:39.939Z,179.46
2022-10-29T09:45:40.039Z,179.77
2022-10-29T09:55:40.055Z,179.48
2022-10-29T10:05:40.216Z,176.91
2022-10-29T10:15:40.139Z,179.03
2022-10-29T10:25:40.188Z,131.52
2022-10-29T10:35:40.394Z,159.39
2022-10-29T10:45:40.299Z,178.66
2022-10-29T10:55:40.277Z,176.99
2022-10-29T11:05:40.325Z,156.28
2022-10-29T11:15:40.356Z,155.37
2022-10-29T11:25:40.270Z,142.45
2022-10-29T11:35:40.292Z,138.93
2022-10-29T11:45:40.250Z,160.64
2022-10-29T11:55:40.239Z,160.52
2022-10-29T12:05:40.175Z,156.26
2022-10-29T12:15:40.323Z,152.91
2022-10-29T12:25:40.358Z,144.35
2022-10-29T12:35:40.288Z,175.68
2022-10-29T12:45:59.528Z,175.72
2022-10-29T12:55:40.392Z,165.76
2022-10-29T13:05:40.366Z,151.69
2022-10-29T13:15:40.384Z,161.09
2022-10-29T13:25:40.451Z,136.29
2022-10-29T13:35:40.246Z,149.85
2022-10-29T13:45:40.345Z,148.31
2022-10-29T13:55:40.398Z,158.62
2022-10-29T14:05:40.441Z,166.50
2022-10-29T14:15:40.315Z,159.34
2022-10-29T14:25:40.461Z,101.01
2022-10-29T14:35:40.473Z,139.24
2022-10-29T14:45:40.411Z,162.51
2022-10-29T14:55:40.531Z,90.00
2022-10-29T15:05:40.383Z,111.49
2022-10-29T15:15:40.469Z,114.90
2022-10-29T15:25:40.548Z,90.00
2022-10-29T15:35:40.622Z,152.80
2022-10-29T15:45:40.677Z,160.05
2022-10-29T15:55:40.686Z,159.95
2022-10-29T16:05:40.614Z,164.45
2022-10-29T16:15:43.307Z,147.23
2022-10-29T16:25:40.595Z,169.17
2022-10-29T16:35:40.628Z,151.57
2022-10-29T16:45:40.754Z,150.07
2022-10-29T16:55:40.567Z,147.57
2022-10-29T17:05:40.579Z,146.45
2022-10-29T17:15:40.658Z,153.87
2022-10-29T17:25:40.727Z,153.89
2022-10-29T17:35:40.804Z,150.40
2022-10-29T17:45:40.730Z,145.55
2022-10-29T17:55:40.745Z,149.20
2022-10-29T18:05:40.719Z,170.62
2022-10-29T18:15:40.754Z,164.47
2022-10-29T18:25:40.774Z,170.73
2022-10-29T18:35:40.870Z,163.84
2022-10-29T18:45:40.888Z,154.22
2022-10-29T18:55:40.956Z,160.71
2022-10-29T19:05:41.121Z,175.10
2022-10-29T19:15:41.331Z,175.07
